createdAt,value
2022-11-11T00:28:20.574Z,85.96
2022-11-11T00:58:20.588Z,86.3
2022-11-11T01:28:20.559Z,86.5
2022-11-11T01:58:20.468Z,86.43
2022-11-11T02:28:20.473Z,86.24
2022-11-11T02:58:20.540Z,86.49
2022-11-11T03:28:20.439Z,86.79
2022-11-11T03:58:20.461Z,86.58
2022-11-11T04:28:20.454Z,87.04
2022-11-11T04:58:20.461Z,86.59
2022-11-11T05:28:20.459Z,86.66
2022-11-11T05:58:20.474Z,86.49
2022-11-11T06:28:20.470Z,86.69
2022-11-11T06:58:20.494Z,86.87
2022-11-11T07:28:20.503Z,86.72
2022-11-11T07:58:20.499Z,86.95
2022-11-11T08:28:20.498Z,87.11
2022-11-11T08:58:20.499Z,87.16
2022-11-11T09:28:20.505Z,86.65
2022-11-11T09:58:20.500Z,86.45
2022-11-11T10:28:20.683Z,85.98
2022-11-11T10:58:20.520Z,85.62
2022-11-11T11:28:20.523Z,85.06
2022-11-11T11:58:20.524Z,84.69
2022-11-11T12:28:20.515Z,84.1
2022-11-11T12:58:20.535Z,82.5
2022-11-11T13:28:20.567Z,81.98
2022-11-11T13:58:20.555Z,81.48
2022-11-11T14:28:20.562Z,81.96
2022-11-11T14:58:20.571Z,81.86
2022-11-11T15:28:20.567Z,82.17
2022-11-11T15:58:20.566Z,82.6
2022-11-11T16:28:20.572Z,83.15
2022-11-11T16:58:20.572Z,83.63
2022-11-11T17:28:20.586Z,83.87
2022-11-11T17:58:20.582Z,84.1
2022-11-11T18:28:20.580Z,84.47
2022-11-11T18:58:20.580Z,84.62
2022-11-11T19:28:20.585Z,84.85
2022-11-11T19:58:20.582Z,85.14
2022-11-11T20:28:20.590Z,85.27
2022-11-11T20:58:20.589Z,85.35
2022-11-11T21:28:20.622Z,85.66
2022-11-11T21:58:20.599Z,85.74
2022-11-11T22:28:20.603Z,85.69
2022-11-11T22:58:20.613Z,85.86
2022-11-11T23:28:20.623Z,85.87
2022-11-11T23:58:20.626Z,85.92
